Time;durP1;ratioP1;P1;durP2;ratioP2;P2;SDS_P1;SDS_P2;PMS_P1;PMS_P2;Temp;Humidity;BMP_temperature;BMP_pressure;BME280_temperature;BME280_humidity;BME280_pressure;Samples;Min_cycle;Max_cycle;Signal;HPM_P1;HPM_P2
2022/10/15 00:00:46;;;;;;;2.63;1.73;;;20.00;66.30;;;;;;5112983;27;20564;-89
2022/10/15 00:03:14;;;;;;;3.87;2.33;;;20.00;65.50;;;;;;5110062;27;21025;-88
2022/10/15 00:05:42;;;;;;;1.70;1.60;;;19.90;65.50;;;;;;5109938;27;20457;-88
2022/10/15 00:08:10;;;;;;;3.80;1.90;;;19.90;65.40;;;;;;5109193;27;20442;-90
2022/10/15 00:10:39;;;;;;;4.10;1.73;;;19.90;65.40;;;;;;5119904;27;20472;-88
2022/10/15 00:13:06;;;;;;;1.87;1.60;;;19.90;65.30;;;;;;5112590;27;20467;-88
2022/10/15 00:15:36;;;;;;;3.37;1.53;;;20.00;65.40;;;;;;5108632;27;21252;-88
2022/10/15 00:18:03;;;;;;;1.43;1.33;;;19.90;65.00;;;;;;5109345;27;20493;-89
2022/10/15 00:20:30;;;;;;;4.20;1.90;;;19.90;64.90;;;;;;5107456;27;20463;-89
2022/10/15 00:22:57;;;;;;;3.00;1.90;;;19.90;65.20;;;;;;5109831;27;20499;-88
2022/10/15 00:25:24;;;;;;;4.43;1.70;;;19.70;66.40;;;;;;5112417;27;20446;-88
2022/10/15 00:27:53;;;;;;;2.80;1.57;;;19.70;66.20;;;;;;5120378;27;20966;-88
2022/10/15 00:30:20;;;;;;;1.83;1.73;;;19.70;66.00;;;;;;5113177;27;21031;-88
2022/10/15 00:32:47;;;;;;;2.30;2.03;;;19.60;66.70;;;;;;5112836;27;20470;-87
2022/10/15 00:35:14;;;;;;;1.57;1.47;;;19.60;66.20;;;;;;5113033;27;20478;-89
2022/10/15 00:37:42;;;;;;;1.93;1.83;;;19.60;66.20;;;;;;5095100;27;20957;-88
2022/10/15 00:40:13;;;;;;;2.00;1.80;;;19.60;66.40;;;;;;5101792;27;20470;-90
2022/10/15 00:42:40;;;;;;;3.47;1.57;;;19.70;66.30;;;;;;5111547;27;21087;-89
2022/10/15 00:45:12;;;;;;;1.67;1.57;;;19.80;66.10;;;;;;5112711;27;20499;-88
2022/10/15 00:47:41;;;;;;;1.50;1.40;;;19.80;66.10;;;;;;5114427;27;20446;-88
2022/10/15 00:50:12;;;;;;;1.50;1.40;;;19.80;65.90;;;;;;5113443;27;21183;-89
2022/10/15 00:52:44;;;;;;;2.30;1.43;;;19.80;66.10;;;;;;5110053;27;20442;-87
2022/10/15 00:55:15;;;;;;;1.90;1.70;;;19.70;65.80;;;;;;5109904;27;20484;-86
2022/10/15 00:57:46;;;;;;;1.93;1.60;;;19.60;66.50;;;;;;5111146;27;20975;-87
2022/10/15 01:00:16;;;;;;;2.33;1.87;;;19.70;66.40;;;;;;5096680;27;20460;-88
2022/10/15 01:02:43;;;;;;;2.20;2.00;;;19.80;66.20;;;;;;5095764;27;20510;-89
2022/10/15 01:05:11;;;;;;;2.10;1.90;;;19.70;66.20;;;;;;5098525;27;20457;-87
2022/10/15 01:07:40;;;;;;;5.03;2.27;;;19.70;66.50;;;;;;5113238;27;20952;-89
2022/10/15 01:10:08;;;;;;;2.10;1.90;;;19.60;66.80;;;;;;5113058;27;20466;-88
2022/10/15 01:12:51;;;;;;;2.27;2.07;;;19.70;66.50;;;;;;5095946;27;21125;-88
2022/10/15 01:15:24;;;;;;;1.87;1.50;;;19.60;66.90;;;;;;5115412;27;20489;-88
2022/10/15 01:17:57;;;;;;;2.00;1.80;;;19.70;66.80;;;;;;5095305;27;20859;-90
2022/10/15 01:20:52;;;;;;;8.03;2.00;;;19.70;66.70;;;;;;5111183;27;20483;-87
2022/10/15 01:23:56;;;;;;;4.50;1.77;;;19.80;66.50;;;;;;5110398;27;20516;-89
2022/10/15 01:26:52;;;;;;;5.23;2.33;;;19.90;66.40;;;;;;5111185;27;20511;-89
2022/10/15 01:29:29;;;;;;;2.53;2.33;;;19.90;66.20;;;;;;5100646;27;20445;-88
2022/10/15 01:32:05;;;;;;;2.60;2.40;;;19.90;66.00;;;;;;5092714;28;20461;-88
2022/10/15 01:34:37;;;;;;;3.00;2.10;;;19.90;66.00;;;;;;5110097;27;20439;-88
2022/10/15 01:37:09;;;;;;;2.23;2.03;;;20.00;66.00;;;;;;5120637;27;20522;-88
2022/10/15 01:39:41;;;;;;;7.20;2.10;;;20.00;65.90;;;;;;5101470;28;20469;-88
2022/10/15 01:42:16;;;;;;;1.60;1.50;;;20.00;65.70;;;;;;5119361;27;20462;-88
2022/10/15 01:44:49;;;;;;;2.20;2.00;;;19.90;65.90;;;;;;5102275;28;20548;-88
2022/10/15 01:47:30;;;;;;;5.40;1.60;;;19.70;66.30;;;;;;5110069;27;20446;-89
2022/10/15 01:49:59;;;;;;;2.10;1.70;;;19.80;66.60;;;;;;5112073;27;20466;-88
2022/10/15 01:52:30;;;;;;;2.30;1.37;;;19.70;66.90;;;;;;5116845;27;20472;-89
2022/10/15 01:54:59;;;;;;;2.60;2.40;;;19.80;66.80;;;;;;5091785;27;20566;-88
2022/10/15 01:57:30;;;;;;;2.20;2.00;;;19.80;66.60;;;;;;5112165;27;20454;-88
2022/10/15 01:59:58;;;;;;;3.40;2.30;;;19.80;66.60;;;;;;5104377;28;20469;-90
2022/10/15 02:02:27;;;;;;;3.50;2.70;;;19.90;66.50;;;;;;5110822;28;20471;-88
2022/10/15 02:04:54;;;;;;;2.97;2.60;;;19.90;66.30;;;;;;5112007;28;20497;-88
2022/10/15 02:07:33;;;;;;;3.43;3.07;;;19.90;66.10;;;;;;5094915;28;20859;-88
2022/10/15 02:10:08;;;;;;;4.63;2.13;;;19.90;65.90;;;;;;5112773;28;20999;-89
2022/10/15 02:12:47;;;;;;;3.10;2.73;;;19.90;65.90;;;;;;5101509;28;20487;-88
2022/10/15 02:15:21;;;;;;;3.83;3.40;;;19.90;66.00;;;;;;5100548;28;20443;-89
2022/10/15 02:17:57;;;;;;;3.70;2.90;;;19.90;66.20;;;;;;5111933;28;21314;-88
2022/10/15 02:20:34;;;;;;;4.70;2.73;;;19.90;66.30;;;;;;5102974;28;20502;-87
2022/10/15 02:23:08;;;;;;;6.17;3.20;;;19.90;66.20;;;;;;5109234;28;20462;-88
2022/10/15 02:25:39;;;;;;;3.27;2.73;;;20.00;66.20;;;;;;5114174;28;20936;-88
2022/10/15 02:28:07;;;;;;;6.17;3.20;;;19.90;66.00;;;;;;5085705;28;20485;-89
2022/10/15 02:30:39;;;;;;;6.00;2.87;;;19.90;66.00;;;;;;5108038;28;20553;-87
2022/10/15 02:33:08;;;;;;;3.90;3.00;;;19.90;66.00;;;;;;5096007;27;20455;-88
2022/10/15 02:35:36;;;;;;;3.23;2.90;;;19.90;66.30;;;;;;5104291;27;20526;-88
2022/10/15 02:38:10;;;;;;;5.20;3.33;;;19.90;66.30;;;;;;5115118;27;20443;-89
2022/10/15 02:40:38;;;;;;;3.90;3.10;;;19.90;66.20;;;;;;5120975;27;20465;-88
2022/10/15 02:43:08;;;;;;;3.37;2.93;;;19.90;66.00;;;;;;5096396;27;20993;-87
2022/10/15 02:45:35;;;;;;;4.23;3.10;;;20.00;66.20;;;;;;5099243;27;20447;-89
2022/10/15 02:48:03;;;;;;;4.53;3.30;;;20.00;66.20;;;;;;5115428;27;20472;-89
2022/10/15 02:50:31;;;;;;;4.20;3.30;;;20.00;66.10;;;;;;5116687;27;20519;-89
2022/10/15 02:52:58;;;;;;;4.30;3.50;;;20.00;66.00;;;;;;5114954;27;21079;-88
2022/10/15 02:55:25;;;;;;;4.93;3.77;;;20.00;65.90;;;;;;5111370;27;20538;-89
2022/10/15 02:57:52;;;;;;;4.40;3.27;;;20.00;66.80;;;;;;5116757;27;20437;-89
2022/10/15 03:00:20;;;;;;;4.17;3.77;;;20.00;66.00;;;;;;5113676;27;20480;-89
2022/10/15 03:02:49;;;;;;;11.50;3.97;;;19.90;66.30;;;;;;5115307;27;20482;-90
2022/10/15 03:05:18;;;;;;;5.70;4.13;;;19.90;66.30;;;;;;5116634;27;20540;-89
2022/10/15 03:07:46;;;;;;;5.37;4.40;;;19.90;66.30;;;;;;5114250;27;20461;-87
2022/10/15 03:10:15;;;;;;;4.30;3.70;;;19.90;66.20;;;;;;5112810;27;20514;-88
2022/10/15 03:12:42;;;;;;;4.17;3.77;;;19.90;66.20;;;;;;5113472;27;20533;-89
2022/10/15 03:15:11;;;;;;;11.20;4.50;;;20.00;66.20;;;;;;5089513;27;20500;-88
2022/10/15 03:17:38;;;;;;;4.83;3.33;;;20.00;66.20;;;;;;5103427;27;20544;-89
2022/10/15 03:20:06;;;;;;;6.00;4.17;;;20.00;66.10;;;;;;5111880;27;20482;-88
2022/10/15 03:22:37;;;;;;;4.80;3.97;;;19.90;66.00;;;;;;5100008;27;20473;-86
2022/10/15 03:25:06;;;;;;;4.73;3.60;;;19.90;66.20;;;;;;5112776;27;20600;-87
2022/10/15 03:27:33;;;;;;;9.57;4.57;;;19.90;66.50;;;;;;5114490;27;20454;-88
2022/10/15 03:30:01;;;;;;;4.70;3.93;;;19.90;66.50;;;;;;5098047;27;20484;-89
2022/10/15 03:32:31;;;;;;;3.80;3.50;;;19.90;66.40;;;;;;5112603;27;20462;-89
2022/10/15 03:34:58;;;;;;;4.77;4.07;;;19.90;66.20;;;;;;5096696;27;20488;-90
2022/10/15 03:37:25;;;;;;;8.80;5.30;;;19.90;65.90;;;;;;5114167;27;20825;-88
2022/10/15 03:39:53;;;;;;;5.90;4.77;;;19.90;65.80;;;;;;5087752;27;20509;-89
2022/10/15 03:42:22;;;;;;;8.73;6.00;;;19.90;65.90;;;;;;5112602;27;20562;-90
2022/10/15 03:44:50;;;;;;;5.53;5.00;;;19.90;65.90;;;;;;5078476;28;20438;-89
2022/10/15 03:47:19;;;;;;;5.50;4.53;;;19.80;66.20;;;;;;5110348;27;20455;-89
2022/10/15 03:49:48;;;;;;;11.17;6.87;;;19.80;67.30;;;;;;5114736;27;21321;-88
2022/10/15 03:52:16;;;;;;;7.37;5.33;;;19.90;66.60;;;;;;5121301;27;20443;-89
2022/10/15 03:54:45;;;;;;;4.23;3.63;;;19.80;66.50;;;;;;5112333;27;20490;-89
2022/10/15 03:57:15;;;;;;;6.07;4.90;;;19.80;66.40;;;;;;5115838;27;20454;-88
2022/10/15 03:59:47;;;;;;;4.13;3.73;;;19.90;66.40;;;;;;5116157;27;20506;-88
2022/10/15 04:02:16;;;;;;;5.60;4.17;;;19.90;66.50;;;;;;5110080;27;20835;-88
2022/10/15 04:04:43;;;;;;;6.33;3.43;;;19.90;66.60;;;;;;5101989;27;20443;-88
2022/10/15 04:07:10;;;;;;;3.53;3.33;;;19.80;66.70;;;;;;5104014;27;20530;-89
2022/10/15 04:09:38;;;;;;;3.30;3.00;;;19.90;66.70;;;;;;5119715;27;20474;-89
2022/10/15 04:12:26;;;;;;;6.33;2.43;;;19.90;66.50;;;;;;5115392;27;20938;-89
2022/10/15 04:14:54;;;;;;;3.87;2.70;;;19.90;66.40;;;;;;5115077;27;20541;-89
2022/10/15 04:17:22;;;;;;;2.57;2.37;;;19.90;66.30;;;;;;5105624;27;20446;-86
2022/10/15 04:19:50;;;;;;;2.90;2.70;;;19.90;66.30;;;;;;5119510;27;20471;-88
2022/10/15 04:22:17;;;;;;;3.17;2.97;;;19.90;66.50;;;;;;5114784;27;20494;-88
2022/10/15 04:24:49;;;;;;;5.10;3.33;;;19.90;66.40;;;;;;5113539;27;20447;-88
2022/10/15 04:27:26;;;;;;;2.90;2.70;;;19.90;66.40;;;;;;5095480;27;20545;-88
2022/10/15 04:30:00;;;;;;;2.70;2.50;;;20.00;66.30;;;;;;5113165;27;20554;-88
2022/10/15 04:32:27;;;;;;;2.80;2.60;;;20.00;66.30;;;;;;5114270;27;20443;-88
2022/10/15 04:34:55;;;;;;;2.70;2.50;;;20.00;66.30;;;;;;5109621;27;20486;-89
2022/10/15 04:37:33;;;;;;;2.43;2.23;;;20.00;66.40;;;;;;5119336;27;20578;-90
2022/10/15 04:40:00;;;;;;;4.60;4.17;;;19.90;66.60;;;;;;5093258;28;20470;-89
2022/10/15 04:42:29;;;;;;;6.70;5.50;;;19.90;66.80;;;;;;5118980;27;20470;-88
2022/10/15 04:44:56;;;;;;;7.80;6.37;;;19.90;67.00;;;;;;5110924;27;20439;-89
2022/10/15 04:47:25;;;;;;;6.30;5.10;;;19.90;66.90;;;;;;5097612;27;20482;-91
2022/10/15 04:50:03;;;;;;;3.20;2.90;;;19.90;66.90;;;;;;5108973;27;20469;-87
2022/10/15 04:52:53;;;;;;;6.90;2.70;;;19.90;66.70;;;;;;5110191;27;20436;-89
2022/10/15 04:55:20;;;;;;;3.50;3.20;;;19.90;66.70;;;;;;5102520;27;20958;-88
2022/10/15 04:57:48;;;;;;;2.50;2.30;;;19.90;66.60;;;;;;5112788;27;21017;-89
2022/10/15 05:00:18;;;;;;;4.40;2.90;;;19.90;66.70;;;;;;5080410;27;20565;-87
2022/10/15 05:03:14;;;;;;;2.77;2.17;;;19.90;66.50;;;;;;5095641;27;21110;-88
2022/10/15 05:05:50;;;;;;;4.30;2.90;;;20.00;66.60;;;;;;5113377;27;20529;-90
2022/10/15 05:08:18;;;;;;;4.00;3.60;;;20.00;66.50;;;;;;5109744;27;20453;-88
2022/10/15 05:11:01;;;;;;;3.10;2.67;;;19.90;66.60;;;;;;5105137;27;20500;-88
2022/10/15 05:13:30;;;;;;;18.30;8.33;;;20.00;66.60;;;;;;5090809;27;20531;-88
2022/10/15 05:16:08;;;;;;;6.40;4.73;;;19.90;66.50;;;;;;5099356;28;20459;-87
2022/10/15 05:18:37;;;;;;;11.03;7.30;;;19.80;67.30;;;;;;5112812;27;20445;-89
2022/10/15 05:21:05;;;;;;;10.00;7.03;;;19.70;67.50;;;;;;5097667;28;20489;-89
2022/10/15 05:23:32;;;;;;;6.50;5.10;;;19.70;67.70;;;;;;5090050;28;20536;-90
2022/10/15 05:26:13;;;;;;;10.73;8.40;;;19.80;67.60;;;;;;5118193;27;20443;-87
2022/10/15 05:28:41;;;;;;;29.43;18.97;;;19.90;67.60;;;;;;5090711;28;20446;-88
2022/10/15 05:31:10;;;;;;;5.40;4.80;;;19.90;67.20;;;;;;5117254;27;20637;-87
2022/10/15 05:33:39;;;;;;;15.93;11.63;;;19.90;66.90;;;;;;5117666;27;20456;-89
2022/10/15 05:36:11;;;;;;;5.27;4.77;;;19.90;67.00;;;;;;5108335;27;20593;-88
2022/10/15 05:38:38;;;;;;;4.70;3.93;;;19.90;67.20;;;;;;5106673;27;20478;-88
2022/10/15 05:41:05;;;;;;;7.80;4.63;;;19.80;67.60;;;;;;5110096;27;20548;-89
2022/10/15 05:43:33;;;;;;;6.27;5.23;;;19.80;67.60;;;;;;5089661;27;20473;-88
2022/10/15 05:46:02;;;;;;;6.47;5.53;;;19.90;67.60;;;;;;5109574;27;20434;-89
2022/10/15 05:48:29;;;;;;;5.53;4.90;;;19.90;67.50;;;;;;5106652;27;20465;-88
2022/10/15 05:51:02;;;;;;;5.30;4.80;;;19.90;67.30;;;;;;5088307;27;20521;-88
2022/10/15 05:53:30;;;;;;;5.30;4.53;;;19.90;67.00;;;;;;5105097;27;20453;-89
2022/10/15 05:56:05;;;;;;;5.53;4.70;;;20.00;67.10;;;;;;5107241;27;20442;-89
2022/10/15 05:58:34;;;;;;;4.97;4.47;;;20.00;67.00;;;;;;5106502;27;21005;-90
2022/10/15 06:01:03;;;;;;;5.70;5.10;;;20.00;67.00;;;;;;5090253;28;20650;-89
2022/10/15 06:03:32;;;;;;;5.60;4.40;;;20.00;67.10;;;;;;5106218;28;20618;-89
2022/10/15 06:06:01;;;;;;;4.90;3.80;;;20.00;67.20;;;;;;5110247;27;21323;-89
2022/10/15 06:08:31;;;;;;;72.10;8.17;;;19.90;67.40;;;;;;5114964;27;20577;-88
2022/10/15 06:11:02;;;;;;;8.30;5.30;;;19.80;67.60;;;;;;5115059;27;20469;-88
2022/10/15 06:13:29;;;;;;;8.77;5.87;;;19.80;67.80;;;;;;5112062;27;21881;-89
2022/10/15 06:15:56;;;;;;;10.20;6.13;;;19.80;67.70;;;;;;5115980;27;20496;-88
2022/10/15 06:18:24;;;;;;;5.57;4.60;;;19.90;67.70;;;;;;5110808;27;20779;-88
2022/10/15 06:20:52;;;;;;;8.30;5.67;;;20.00;67.60;;;;;;5114320;27;21049;-89
2022/10/15 06:23:23;;;;;;;8.87;7.27;;;19.90;67.70;;;;;;5113477;27;20535;-87
2022/10/15 06:25:50;;;;;;;6.80;6.10;;;19.80;67.70;;;;;;5112295;27;20435;-89
2022/10/15 06:28:17;;;;;;;7.97;6.80;;;19.70;68.60;;;;;;5112335;27;20588;-88
2022/10/15 06:30:44;;;;;;;9.13;5.53;;;19.70;68.60;;;;;;5113419;27;20972;-89
2022/10/15 06:33:12;;;;;;;17.80;16.10;;;19.70;68.90;;;;;;5111844;27;20512;-89
2022/10/15 06:35:40;;;;;;;13.27;11.90;;;19.70;68.90;;;;;;5109271;27;20443;-87
2022/10/15 06:38:07;;;;;;;7.93;7.20;;;19.70;68.80;;;;;;5110977;27;20527;-90
2022/10/15 06:40:37;;;;;;;4.17;3.57;;;19.70;68.60;;;;;;5112156;27;20477;-88
2022/10/15 06:43:06;;;;;;;9.90;6.77;;;19.70;69.10;;;;;;5111977;27;20988;-88
2022/10/15 06:45:35;;;;;;;6.17;4.80;;;19.50;69.20;;;;;;5110875;27;20458;-86
2022/10/15 06:48:06;;;;;;;6.30;5.13;;;19.60;69.20;;;;;;5110892;27;20443;-89
2022/10/15 06:50:35;;;;;;;4.40;2.90;;;19.70;68.90;;;;;;5086605;27;20890;-88
2022/10/15 06:53:02;;;;;;;3.90;2.57;;;19.60;69.10;;;;;;5089466;27;20529;-88
2022/10/15 06:55:29;;;;;;;5.40;4.77;;;19.60;69.20;;;;;;5114232;27;20445;-88
2022/10/15 06:57:58;;;;;;;9.60;5.50;;;19.60;69.60;;;;;;5113962;27;20963;-88
2022/10/15 07:00:27;;;;;;;2.73;2.40;;;19.70;69.10;;;;;;5113184;27;20466;-88
2022/10/15 07:02:54;;;;;;;3.87;2.60;;;19.70;69.10;;;;;;5122046;27;20588;-88
2022/10/15 07:05:21;;;;;;;1.90;1.70;;;19.70;69.40;;;;;;5115512;27;20451;-88
2022/10/15 07:07:52;;;;;;;2.67;2.47;;;19.70;69.60;;;;;;5114338;27;21103;-88
2022/10/15 07:10:20;;;;;;;2.17;1.97;;;19.70;69.40;;;;;;5117124;27;21198;-89
2022/10/15 07:12:47;;;;;;;2.33;2.13;;;19.90;69.10;;;;;;5082933;28;20931;-87
2022/10/15 07:15:16;;;;;;;2.60;1.90;;;19.90;68.80;;;;;;5116089;27;20903;-89
2022/10/15 07:17:47;;;;;;;2.60;1.90;;;19.90;68.90;;;;;;5116868;27;20540;-87
2022/10/15 07:20:15;;;;;;;3.30;3.00;;;19.90;69.00;;;;;;5115254;27;20471;-89
2022/10/15 07:22:42;;;;;;;3.00;2.10;;;19.90;69.00;;;;;;5112711;27;20584;-88
2022/10/15 07:25:10;;;;;;;1.30;1.20;;;20.00;69.30;;;;;;5115016;27;20442;-88
2022/10/15 07:27:38;;;;;;;2.73;1.00;;;20.00;69.20;;;;;;5113144;27;20449;-86
2022/10/15 07:30:07;;;;;;;2.50;2.30;;;20.00;69.30;;;;;;5114553;27;20491;-86
2022/10/15 07:32:35;;;;;;;1.93;1.10;;;19.90;69.80;;;;;;5111427;27;20446;-87
2022/10/15 07:35:03;;;;;;;1.23;1.00;;;19.90;69.80;;;;;;5111988;27;20450;-87
2022/10/15 07:37:31;;;;;;;1.40;1.23;;;19.80;70.20;;;;;;5110792;27;20449;-86
2022/10/15 07:39:58;;;;;;;1.10;0.90;;;19.80;70.10;;;;;;5112762;27;20562;-86
2022/10/15 07:42:25;;;;;;;1.33;1.23;;;20.00;69.90;;;;;;5109010;27;20438;-86
2022/10/15 07:44:52;;;;;;;6.13;2.60;;;20.00;70.00;;;;;;5114080;27;20561;-88
2022/10/15 07:47:19;;;;;;;6.63;3.67;;;20.10;69.90;;;;;;5111647;27;20802;-88
2022/10/15 07:49:48;;;;;;;5.50;2.50;;;20.10;69.60;;;;;;5111916;27;20510;-87
2022/10/15 07:52:15;;;;;;;2.40;1.70;;;20.20;69.60;;;;;;5112367;27;20460;-86
2022/10/15 07:54:42;;;;;;;1.67;1.53;;;20.10;70.00;;;;;;5110836;27;20534;-86
2022/10/15 07:57:09;;;;;;;9.20;1.97;;;20.20;69.70;;;;;;5111042;27;20445;-86
2022/10/15 07:59:36;;;;;;;1.70;1.27;;;20.30;69.50;;;;;;5109113;27;20458;-86
2022/10/15 08:02:04;;;;;;;2.13;1.20;;;20.40;69.50;;;;;;5110594;27;20451;-86
2022/10/15 08:04:33;;;;;;;2.07;1.20;;;20.40;69.40;;;;;;5110994;27;20876;-87
2022/10/15 08:07:01;;;;;;;1.87;1.73;;;20.50;69.30;;;;;;5112186;27;20533;-87
2022/10/15 08:09:28;;;;;;;1.00;0.90;;;20.50;69.10;;;;;;5111549;27;20541;-88
2022/10/15 08:11:55;;;;;;;1.47;1.20;;;20.50;68.90;;;;;;5110784;27;20468;-86
2022/10/15 08:14:22;;;;;;;2.13;1.30;;;20.50;69.10;;;;;;5111172;27;20446;-85
2022/10/15 08:16:50;;;;;;;2.27;1.40;;;20.50;69.10;;;;;;5112477;27;20450;-87
2022/10/15 08:19:17;;;;;;;3.00;1.40;;;20.50;69.10;;;;;;5107609;27;20477;-89
2022/10/15 08:21:45;;;;;;;1.50;1.30;;;20.60;69.20;;;;;;5110922;27;21031;-87
2022/10/15 08:24:14;;;;;;;1.50;1.40;;;20.50;68.90;;;;;;5111026;27;20573;-86
2022/10/15 08:26:41;;;;;;;1.00;0.90;;;20.50;69.00;;;;;;5110125;27;20944;-87
2022/10/15 08:29:09;;;;;;;1.23;1.13;;;20.60;69.30;;;;;;5112700;27;20457;-86
2022/10/15 08:31:36;;;;;;;1.03;0.93;;;20.60;69.50;;;;;;5111911;27;20473;-87
2022/10/15 08:34:03;;;;;;;8.27;5.60;;;20.80;69.20;;;;;;5095474;28;20446;-86
2022/10/15 08:36:30;;;;;;;4.63;4.20;;;20.80;69.30;;;;;;5119036;27;20446;-86
2022/10/15 08:38:58;;;;;;;2.00;1.50;;;20.90;69.10;;;;;;5108942;27;20442;-86
2022/10/15 08:41:32;;;;;;;2.13;1.93;;;21.00;69.00;;;;;;5109268;27;20467;-86
2022/10/15 08:43:59;;;;;;;3.50;3.17;;;20.90;68.90;;;;;;5109745;27;20506;-87
2022/10/15 08:46:34;;;;;;;4.83;3.90;;;21.00;69.00;;;;;;5108986;27;20461;-87
2022/10/15 08:49:02;;;;;;;7.17;5.20;;;21.10;69.20;;;;;;5112681;27;20517;-86
2022/10/15 08:51:38;;;;;;;9.10;5.40;;;21.00;69.30;;;;;;5109794;27;20473;-87
2022/10/15 08:54:09;;;;;;;7.20;3.67;;;21.10;69.40;;;;;;5110431;27;20525;-86
2022/10/15 08:56:40;;;;;;;2.43;2.23;;;21.10;69.20;;;;;;5112391;27;20559;-87
2022/10/15 08:59:21;;;;;;;1.90;1.70;;;20.90;70.50;;;;;;5109485;27;21205;-86
2022/10/15 09:01:52;;;;;;;1.93;1.67;;;20.80;70.60;;;;;;5110621;27;20864;-86
2022/10/15 09:04:28;;;;;;;1.60;1.50;;;20.90;70.50;;;;;;5112604;27;20564;-86
2022/10/15 09:07:01;;;;;;;2.90;1.70;;;21.00;71.00;;;;;;5111147;27;20461;-86
2022/10/15 09:09:35;;;;;;;1.83;1.57;;;21.10;70.20;;;;;;5111401;27;20449;-86
2022/10/15 09:12:14;;;;;;;2.20;1.50;;;21.20;70.40;;;;;;5110773;27;21044;-84
2022/10/15 09:14:45;;;;;;;1.70;1.60;;;21.10;70.10;;;;;;5110271;27;20945;-88
2022/10/15 09:17:20;;;;;;;2.30;1.73;;;21.30;70.00;;;;;;5111556;27;20549;-84
2022/10/15 09:19:52;;;;;;;2.53;2.13;;;21.40;69.60;;;;;;5108841;27;20496;-85
2022/10/15 09:22:23;;;;;;;2.17;1.67;;;21.40;69.60;;;;;;5111078;27;21100;-85
2022/10/15 09:24:50;;;;;;;2.83;1.87;;;21.50;69.90;;;;;;5110193;27;20469;-87
2022/10/15 09:27:27;;;;;;;1.53;1.43;;;21.60;69.70;;;;;;5111125;27;20454;-86
2022/10/15 09:30:02;;;;;;;2.03;1.90;;;21.70;69.60;;;;;;5118442;27;20476;-86
2022/10/15 09:32:35;;;;;;;2.60;2.03;;;21.70;69.20;;;;;;5111035;27;20939;-85
2022/10/15 09:35:13;;;;;;;1.80;1.70;;;21.70;68.80;;;;;;5109230;27;20435;-86
2022/10/15 09:37:50;;;;;;;1.70;1.60;;;21.70;68.90;;;;;;5111521;27;20450;-86
2022/10/15 09:40:35;;;;;;;3.57;1.70;;;21.70;69.30;;;;;;5110249;27;20615;-87
2022/10/15 09:43:05;;;;;;;1.67;1.57;;;21.70;69.30;;;;;;5106035;27;20462;-85
2022/10/15 09:45:33;;;;;;;2.07;1.50;;;21.80;68.30;;;;;;5110654;27;20497;-86
2022/10/15 09:48:02;;;;;;;2.97;1.87;;;21.80;68.50;;;;;;5108240;27;20847;-85
2022/10/15 09:50:42;;;;;;;1.57;1.47;;;21.80;68.90;;;;;;5109919;27;20461;-87
2022/10/15 09:53:18;;;;;;;1.60;1.50;;;21.80;68.10;;;;;;5111821;27;20446;-86
2022/10/15 09:55:50;;;;;;;1.60;1.50;;;22.00;68.20;;;;;;5111155;27;20461;-88
2022/10/15 09:58:25;;;;;;;1.80;1.70;;;21.90;67.70;;;;;;5108268;28;20498;-86
2022/10/15 10:00:59;;;;;;;2.10;1.90;;;22.00;68.40;;;;;;5108773;27;20474;-88
2022/10/15 10:03:29;;;;;;;1.30;1.20;;;22.10;67.90;;;;;;5109599;27;20509;-85
2022/10/15 10:06:03;;;;;;;1.50;1.40;;;21.90;68.00;;;;;;5110197;28;20473;-87
2022/10/15 10:08:40;;;;;;;1.60;1.40;;;22.00;68.10;;;;;;5122924;27;20831;-89
2022/10/15 10:11:11;;;;;;;2.40;1.93;;;22.20;67.50;;;;;;5110528;28;20980;-88
2022/10/15 10:13:46;;;;;;;2.77;2.57;;;22.30;65.80;;;;;;5117149;28;21004;-87
2022/10/15 10:16:14;;;;;;;6.83;2.23;;;22.30;66.70;;;;;;5108308;28;20441;-86
2022/10/15 10:18:49;;;;;;;3.77;1.40;;;22.40;67.10;;;;;;5109477;28;20551;-87
2022/10/15 10:21:25;;;;;;;2.77;2.50;;;22.30;65.20;;;;;;5105956;28;20476;-88
2022/10/15 10:23:52;;;;;;;6.40;5.10;;;22.10;66.80;;;;;;5109316;28;20462;-86
2022/10/15 10:26:22;;;;;;;1.90;1.80;;;22.00;68.50;;;;;;5110533;28;20451;-86
2022/10/15 10:28:54;;;;;;;1.97;1.87;;;21.90;67.50;;;;;;5109105;28;20454;-86
2022/10/15 10:31:30;;;;;;;1.60;1.33;;;22.00;67.90;;;;;;5109204;28;20481;-87
2022/10/15 10:34:00;;;;;;;2.60;2.30;;;21.90;67.80;;;;;;5108875;28;21305;-86
2022/10/15 10:36:29;;;;;;;2.30;2.10;;;21.90;67.30;;;;;;5107992;28;20450;-85
2022/10/15 10:39:01;;;;;;;1.30;1.20;;;22.10;66.80;;;;;;5108012;28;20457;-85
2022/10/15 10:41:50;;;;;;;4.30;1.30;;;22.30;66.80;;;;;;5107555;28;21082;-84
2022/10/15 10:44:26;;;;;;;2.80;1.47;;;22.40;66.30;;;;;;5109027;28;20474;-86
2022/10/15 10:47:10;;;;;;;0.87;0.87;;;22.40;64.60;;;;;;5116785;28;20446;-88
2022/10/15 10:49:39;;;;;;;1.07;0.97;;;22.20;66.90;;;;;;5107653;28;20445;-86
2022/10/15 10:52:20;;;;;;;1.33;0.90;;;22.00;65.70;;;;;;5112853;27;20478;-86
2022/10/15 10:54:48;;;;;;;1.00;0.90;;;21.90;66.40;;;;;;5121335;27;20442;-86
2022/10/15 10:57:22;;;;;;;2.13;1.20;;;22.10;67.10;;;;;;5112245;27;20997;-85
2022/10/15 10:59:55;;;;;;;2.30;1.03;;;22.00;67.50;;;;;;5114366;27;20466;-87
2022/10/15 11:02:22;;;;;;;1.00;0.90;;;22.00;66.80;;;;;;5111798;27;20908;-84
2022/10/15 11:04:49;;;;;;;1.00;0.90;;;22.00;66.60;;;;;;5112939;27;20470;-85
2022/10/15 11:07:23;;;;;;;1.00;0.90;;;22.10;66.70;;;;;;5111177;27;20458;-85
2022/10/15 11:09:56;;;;;;;1.23;1.13;;;22.30;65.80;;;;;;5121402;27;20473;-88
2022/10/15 11:12:57;;;;;;;1.00;0.90;;;22.50;65.10;;;;;;5114632;27;20438;-89
2022/10/15 11:15:40;;;;;;;1.20;0.90;;;22.50;64.50;;;;;;5114196;27;20561;-86
2022/10/15 11:18:24;;;;;;;1.20;1.07;;;22.60;65.10;;;;;;5112195;27;20954;-86
2022/10/15 11:21:02;;;;;;;3.10;1.13;;;22.70;65.10;;;;;;5113906;27;20477;-86
2022/10/15 11:23:45;;;;;;;1.30;1.10;;;22.60;64.60;;;;;;5112506;27;20443;-85
2022/10/15 11:26:27;;;;;;;1.07;0.97;;;22.60;65.30;;;;;;5113356;27;20453;-86
2022/10/15 11:29:03;;;;;;;0.80;0.80;;;22.70;65.00;;;;;;5112386;27;20578;-85
2022/10/15 11:31:40;;;;;;;1.00;0.90;;;22.60;64.60;;;;;;5109513;27;20542;-85
2022/10/15 11:34:23;;;;;;;0.90;0.80;;;22.50;64.60;;;;;;5094528;27;20452;-87
2022/10/15 11:37:01;;;;;;;1.20;0.90;;;22.60;64.50;;;;;;5112852;27;20819;-86
2022/10/15 11:39:42;;;;;;;1.77;1.00;;;22.60;64.60;;;;;;5108683;27;20453;-86
2022/10/15 11:42:16;;;;;;;0.87;0.83;;;22.60;64.50;;;;;;5110830;27;20477;-87
2022/10/15 11:45:00;;;;;;;0.90;0.90;;;22.60;64.50;;;;;;5112787;27;20486;-84
2022/10/15 11:47:42;;;;;;;1.00;0.90;;;22.70;64.10;;;;;;5112464;27;20482;-88
2022/10/15 11:50:21;;;;;;;1.10;1.00;;;22.80;64.60;;;;;;5112752;27;20507;-85
2022/10/15 11:53:11;;;;;;;1.33;1.23;;;22.90;64.10;;;;;;5114595;27;20455;-85
2022/10/15 11:55:43;;;;;;;1.60;1.50;;;23.10;63.90;;;;;;5111872;27;20551;-86
2022/10/15 11:58:14;;;;;;;1.53;1.10;;;23.00;63.80;;;;;;5111656;27;20453;-88
2022/10/15 12:00:46;;;;;;;2.07;0.90;;;23.00;63.80;;;;;;5110577;27;20502;-85
2022/10/15 12:03:18;;;;;;;1.73;0.90;;;23.10;63.70;;;;;;5111852;27;20451;-85
2022/10/15 12:05:51;;;;;;;0.97;0.87;;;23.00;63.60;;;;;;5112284;27;20480;-86
2022/10/15 12:08:20;;;;;;;0.80;0.80;;;22.80;63.90;;;;;;5114163;27;20441;-87
2022/10/15 12:11:07;;;;;;;1.00;0.90;;;22.60;64.50;;;;;;5114486;27;20466;-87
2022/10/15 12:13:41;;;;;;;1.10;0.90;;;22.50;64.80;;;;;;5113142;27;20438;-86
2022/10/15 12:16:19;;;;;;;1.37;1.10;;;22.50;65.60;;;;;;5112665;27;21049;-86
2022/10/15 12:18:51;;;;;;;0.87;0.80;;;22.50;65.10;;;;;;5113017;27;20975;-86
2022/10/15 12:21:36;;;;;;;1.10;0.83;;;22.50;65.60;;;;;;5110773;27;20475;-84
2022/10/15 12:24:05;;;;;;;1.90;1.00;;;22.40;65.00;;;;;;5109092;27;20500;-86
2022/10/15 12:26:34;;;;;;;1.00;0.90;;;22.50;65.20;;;;;;5111824;27;20435;-88
2022/10/15 12:29:05;;;;;;;1.50;0.90;;;22.70;63.60;;;;;;5110130;27;20519;-86
2022/10/15 12:31:50;;;;;;;1.00;0.90;;;22.80;62.30;;;;;;5110966;27;20463;-85
2022/10/15 12:34:32;;;;;;;0.90;0.80;;;22.80;62.80;;;;;;5109039;27;20537;-87
2022/10/15 12:37:01;;;;;;;1.07;0.97;;;22.90;61.00;;;;;;5110912;27;20450;-86
2022/10/15 12:39:29;;;;;;;2.07;0.80;;;23.00;61.00;;;;;;5109414;27;20454;-86
2022/10/15 12:41:56;;;;;;;1.20;1.00;;;23.00;61.50;;;;;;5112036;27;20824;-87
2022/10/15 12:44:27;;;;;;;1.27;1.07;;;23.10;60.20;;;;;;5109859;27;20523;-87
2022/10/15 12:46:54;;;;;;;1.37;1.00;;;23.30;60.10;;;;;;5113865;27;20458;-86
2022/10/15 12:50:04;;;;;;;1.93;1.00;;;23.40;60.10;;;;;;5109887;27;20448;-87
2022/10/15 12:53:00;;;;;;;1.83;1.00;;;24.00;60.00;;;;;;5111454;27;20450;-86
2022/10/15 12:55:33;;;;;;;0.90;0.80;;;24.30;57.00;;;;;;5111756;27;20535;-85
2022/10/15 12:58:02;;;;;;;1.23;0.80;;;24.10;56.70;;;;;;5120734;27;20434;-85
2022/10/15 13:00:47;;;;;;;1.23;1.00;;;23.90;57.00;;;;;;5111131;27;20458;-86
2022/10/15 13:03:36;;;;;;;1.90;1.40;;;23.40;57.10;;;;;;5120152;27;20443;-87
2022/10/15 13:06:33;;;;;;;1.03;0.90;;;23.10;59.10;;;;;;5091103;27;21206;-86
2022/10/15 13:09:18;;;;;;;3.63;1.00;;;22.90;59.70;;;;;;5110222;27;20447;-85